Time;durP1;ratioP1;P1;durP2;ratioP2;P2;SDS_P1;SDS_P2;PMS_P1;PMS_P2;Temp;Humidity;BMP_temperature;BMP_pressure;BME280_temperature;BME280_humidity;BME280_pressure;Samples;Min_cycle;Max_cycle;Signal;HPM_P1;HPM_P2
2023/03/10 00:01:30;;;;;;;60.20;34.40;;;;;;;;;;5052163;28;20028;-71
2023/03/10 00:03:57;;;;;;;58.65;34.60;;;;;;;;;;5051754;28;20052;-71
2023/03/10 00:06:25;;;;;;;62.53;35.85;;;;;;;;;;5052065;28;20076;-71
2023/03/10 00:08:51;;;;;;;63.72;34.83;;;;;;;;;;5052112;28;20154;-72
2023/03/10 00:11:18;;;;;;;59.30;34.58;;;;;;;;;;5051951;28;20033;-73
2023/03/10 00:13:44;;;;;;;61.85;35.55;;;;;;;;;;5051755;28;20387;-71
2023/03/10 00:16:20;;;;;;;64.28;35.67;;;;;;;;;;5052032;28;20021;-72
2023/03/10 00:18:47;;;;;;;59.75;34.75;;;;;;;;;;5051943;28;20052;-73
2023/03/10 00:21:14;;;;;;;59.88;34.92;;;;;;;;;;5051905;28;20430;-72
2023/03/10 00:23:40;;;;;;;65.85;36.83;;;;;;;;;;5050117;28;20194;-74
2023/03/10 00:26:07;;;;;;;61.85;35.38;;;;;;;;;;5051801;28;20060;-72
2023/03/10 00:28:33;;;;;;;56.50;34.17;;;;;;;;;;5051790;28;20025;-72
2023/03/10 00:31:06;;;;;;;62.22;34.10;;;;;;;;;;5051768;28;20036;-73
2023/03/10 00:33:33;;;;;;;61.72;35.03;;;;;;;;;;5052044;28;20029;-74
2023/03/10 00:36:02;;;;;;;61.22;35.05;;;;;;;;;;5052540;28;20067;-71
2023/03/10 00:38:28;;;;;;;61.47;35.17;;;;;;;;;;5052696;28;20021;-73
2023/03/10 00:40:58;;;;;;;64.18;35.42;;;;;;;;;;5051236;28;20032;-75
2023/03/10 00:43:24;;;;;;;60.92;34.47;;;;;;;;;;5013288;28;1121010;-72
2023/03/10 00:45:50;;;;;;;58.35;34.92;;;;;;;;;;5053680;28;20025;-73
2023/03/10 00:48:16;;;;;;;62.42;35.25;;;;;;;;;;5053579;28;20027;-72
2023/03/10 00:50:42;;;;;;;63.60;35.92;;;;;;;;;;5053628;28;20493;-72
2023/03/10 00:53:08;;;;;;;58.15;34.28;;;;;;;;;;5053372;28;20017;-74
2023/03/10 00:55:34;;;;;;;61.60;35.00;;;;;;;;;;5053610;28;20028;-73
2023/03/10 00:58:00;;;;;;;62.00;35.63;;;;;;;;;;5053639;28;20044;-73
2023/03/10 01:00:26;;;;;;;60.78;34.75;;;;;;;;;;5051826;28;20051;-73
2023/03/10 01:02:52;;;;;;;61.28;35.70;;;;;;;;;;5050750;28;20067;-72
2023/03/10 01:05:18;;;;;;;59.42;34.75;;;;;;;;;;5057337;28;20023;-72
2023/03/10 01:07:44;;;;;;;56.47;33.33;;;;;;;;;;5053112;28;20104;-73
2023/03/10 01:10:11;;;;;;;63.25;35.83;;;;;;;;;;5052942;28;20068;-73
2023/03/10 01:12:37;;;;;;;63.65;35.92;;;;;;;;;;5052789;28;20020;-72
2023/03/10 01:15:03;;;;;;;62.22;36.20;;;;;;;;;;5052480;28;20386;-73
2023/03/10 01:17:30;;;;;;;66.40;36.47;;;;;;;;;;5051774;28;20040;-71
2023/03/10 01:19:56;;;;;;;58.83;34.03;;;;;;;;;;5053491;28;20049;-74
2023/03/10 01:22:22;;;;;;;63.13;35.90;;;;;;;;;;5053469;28;20029;-73
2023/03/10 01:24:48;;;;;;;61.28;35.03;;;;;;;;;;5053739;28;20076;-71
2023/03/10 01:27:14;;;;;;;65.38;37.08;;;;;;;;;;5053299;28;20029;-72
2023/03/10 01:29:40;;;;;;;64.95;36.75;;;;;;;;;;5052741;28;20112;-72
2023/03/10 01:32:07;;;;;;;63.10;36.10;;;;;;;;;;5052400;28;20025;-71
2023/03/10 01:34:33;;;;;;;66.82;38.03;;;;;;;;;;5052407;28;20025;-71
2023/03/10 01:36:59;;;;;;;68.95;37.70;;;;;;;;;;5052442;28;20025;-71
2023/03/10 01:39:25;;;;;;;69.75;38.95;;;;;;;;;;5052534;28;20091;-72
2023/03/10 01:41:51;;;;;;;70.78;39.25;;;;;;;;;;5052136;28;20089;-71
2023/03/10 01:44:19;;;;;;;73.68;39.70;;;;;;;;;;5052402;28;20116;-71
2023/03/10 01:46:47;;;;;;;69.13;38.92;;;;;;;;;;5052310;28;20398;-71
2023/03/10 01:49:31;;;;;;;69.25;37.47;;;;;;;;;;5052281;28;20508;-72
2023/03/10 01:52:06;;;;;;;69.15;38.38;;;;;;;;;;5052034;28;20082;-71
2023/03/10 01:54:52;;;;;;;67.43;37.47;;;;;;;;;;5052226;28;20052;-71
2023/03/10 01:57:20;;;;;;;67.57;37.47;;;;;;;;;;5051944;28;20052;-71
2023/03/10 01:59:46;;;;;;;66.18;36.75;;;;;;;;;;5052119;28;20067;-72
2023/03/10 02:02:12;;;;;;;66.43;37.80;;;;;;;;;;5052357;28;20032;-72
2023/03/10 02:04:47;;;;;;;64.43;35.05;;;;;;;;;;5052053;28;20021;-71
2023/03/10 02:07:13;;;;;;;67.60;37.50;;;;;;;;;;5051879;28;20032;-72
2023/03/10 02:09:43;;;;;;;68.68;36.80;;;;;;;;;;5051881;28;20029;-72
2023/03/10 02:12:09;;;;;;;62.30;36.83;;;;;;;;;;5051569;28;20032;-73
2023/03/10 02:14:35;;;;;;;62.13;36.40;;;;;;;;;;5052047;28;20025;-72
2023/03/10 02:17:03;;;;;;;61.35;34.72;;;;;;;;;;5051771;28;20386;-72
2023/03/10 02:19:29;;;;;;;67.07;35.40;;;;;;;;;;5051842;28;20021;-73
2023/03/10 02:22:04;;;;;;;64.18;35.78;;;;;;;;;;5051692;28;20497;-72
2023/03/10 02:24:36;;;;;;;63.83;35.80;;;;;;;;;;5051964;28;20029;-75
2023/03/10 02:27:05;;;;;;;65.55;36.42;;;;;;;;;;5051646;28;20135;-73
2023/03/10 02:29:39;;;;;;;61.80;34.97;;;;;;;;;;5050818;28;20116;-73
2023/03/10 02:32:06;;;;;;;64.22;35.88;;;;;;;;;;5051599;28;20082;-74
2023/03/10 02:34:33;;;;;;;65.85;36.47;;;;;;;;;;5051585;28;20025;-74
2023/03/10 02:36:59;;;;;;;58.13;34.72;;;;;;;;;;5054622;28;20021;-73
2023/03/10 02:39:25;;;;;;;62.03;35.20;;;;;;;;;;5049873;28;20452;-73
2023/03/10 02:41:51;;;;;;;62.92;34.88;;;;;;;;;;5052895;28;20486;-73
2023/03/10 02:44:19;;;;;;;63.70;36.05;;;;;;;;;;5051838;28;20124;-74
2023/03/10 02:46:45;;;;;;;61.53;35.28;;;;;;;;;;5050108;28;20063;-73
2023/03/10 02:49:11;;;;;;;57.10;33.45;;;;;;;;;;5051073;28;20028;-73
2023/03/10 02:51:40;;;;;;;65.53;34.88;;;;;;;;;;5053441;28;20029;-73
2023/03/10 02:54:07;;;;;;;58.95;33.65;;;;;;;;;;5054038;28;20028;-77
2023/03/10 02:56:33;;;;;;;59.35;34.30;;;;;;;;;;5045733;28;20030;-73
2023/03/10 02:59:00;;;;;;;60.38;34.33;;;;;;;;;;5044822;28;20487;-73
2023/03/10 03:01:28;;;;;;;58.08;33.15;;;;;;;;;;5041402;28;20387;-74
2023/03/10 03:03:54;;;;;;;60.55;33.63;;;;;;;;;;5046949;28;20021;-73
2023/03/10 03:06:20;;;;;;;58.65;34.05;;;;;;;;;;5047210;28;20021;-74
2023/03/10 03:08:46;;;;;;;55.15;33.00;;;;;;;;;;5048900;28;20387;-73
2023/03/10 03:11:13;;;;;;;60.33;34.13;;;;;;;;;;5040326;28;20076;-73
2023/03/10 03:13:39;;;;;;;62.08;35.20;;;;;;;;;;5057761;28;20024;-73
2023/03/10 03:16:07;;;;;;;58.85;33.40;;;;;;;;;;5049817;28;20449;-74
2023/03/10 03:18:33;;;;;;;54.97;32.72;;;;;;;;;;5043900;28;20025;-73
2023/03/10 03:21:03;;;;;;;59.42;34.63;;;;;;;;;;5040777;28;20018;-74
2023/03/10 03:23:28;;;;;;;60.15;34.42;;;;;;;;;;5047848;28;20109;-75
2023/03/10 03:25:54;;;;;;;60.53;33.67;;;;;;;;;;5051233;28;20104;-74
2023/03/10 03:28:20;;;;;;;62.38;35.08;;;;;;;;;;5045012;28;20102;-75
2023/03/10 03:30:46;;;;;;;60.97;34.25;;;;;;;;;;5044997;28;20029;-74
2023/03/10 03:33:12;;;;;;;60.25;34.60;;;;;;;;;;5049150;28;20052;-75
2023/03/10 03:35:39;;;;;;;58.85;33.78;;;;;;;;;;5051787;28;20510;-75
2023/03/10 03:38:06;;;;;;;58.80;34.05;;;;;;;;;;5047051;28;20017;-74
2023/03/10 03:40:33;;;;;;;58.08;34.58;;;;;;;;;;5049264;28;20458;-75
2023/03/10 03:42:59;;;;;;;60.42;34.35;;;;;;;;;;5045921;28;20017;-73
2023/03/10 03:45:26;;;;;;;60.10;35.63;;;;;;;;;;5051113;28;20436;-72
2023/03/10 03:47:52;;;;;;;64.68;35.55;;;;;;;;;;5049104;28;20398;-72
2023/03/10 03:50:19;;;;;;;59.22;34.58;;;;;;;;;;5048767;28;20037;-71
2023/03/10 03:52:45;;;;;;;57.28;34.72;;;;;;;;;;5053812;28;20064;-73
2023/03/10 03:55:13;;;;;;;60.90;34.78;;;;;;;;;;5054071;28;20033;-72
2023/03/10 03:57:39;;;;;;;62.10;35.45;;;;;;;;;;5054435;28;20025;-74
2023/03/10 04:00:06;;;;;;;60.63;36.10;;;;;;;;;;5054634;28;20029;-72
2023/03/10 04:02:33;;;;;;;59.70;34.70;;;;;;;;;;5054336;28;20079;-74
2023/03/10 04:04:59;;;;;;;64.53;36.00;;;;;;;;;;5054285;28;20372;-73
2023/03/10 04:07:25;;;;;;;63.65;35.88;;;;;;;;;;5054121;28;20035;-73
2023/03/10 04:09:51;;;;;;;64.28;36.13;;;;;;;;;;5054571;28;20080;-71
2023/03/10 04:12:17;;;;;;;61.97;36.38;;;;;;;;;;5053819;28;20021;-73
2023/03/10 04:14:43;;;;;;;64.53;35.30;;;;;;;;;;5053996;28;20025;-70
2023/03/10 04:17:09;;;;;;;63.10;37.00;;;;;;;;;;5054510;28;20100;-72
2023/03/10 04:19:35;;;;;;;68.30;38.20;;;;;;;;;;5054111;28;20390;-72
2023/03/10 04:22:01;;;;;;;61.45;36.20;;;;;;;;;;5053612;28;20032;-75
2023/03/10 04:24:27;;;;;;;65.93;37.78;;;;;;;;;;5053999;28;20104;-79
2023/03/10 04:26:52;;;;;;;66.38;37.53;;;;;;;;;;5054141;28;20124;-75
2023/03/10 04:29:23;;;;;;;64.93;37.95;;;;;;;;;;5053763;28;20030;-73
2023/03/10 04:31:49;;;;;;;67.65;37.58;;;;;;;;;;5054120;28;20025;-75
2023/03/10 04:34:15;;;;;;;65.18;37.80;;;;;;;;;;5054027;28;20548;-73
2023/03/10 04:36:41;;;;;;;64.95;36.08;;;;;;;;;;5054098;28;20033;-72
2023/03/10 04:39:08;;;;;;;68.07;39.08;;;;;;;;;;5054090;28;20031;-71
2023/03/10 04:41:35;;;;;;;63.33;36.28;;;;;;;;;;5054129;28;20390;-72
2023/03/10 04:44:01;;;;;;;63.55;35.63;;;;;;;;;;5053596;28;20047;-71
2023/03/10 04:46:27;;;;;;;68.53;36.70;;;;;;;;;;5053743;28;20055;-72
2023/03/10 04:48:54;;;;;;;68.93;38.25;;;;;;;;;;5052902;28;20029;-74
2023/03/10 04:51:21;;;;;;;62.28;36.33;;;;;;;;;;5058675;28;20024;-75
2023/03/10 04:53:47;;;;;;;66.22;36.85;;;;;;;;;;5058625;28;20129;-76
2023/03/10 04:56:13;;;;;;;64.45;36.30;;;;;;;;;;5053795;28;20061;-72
2023/03/10 04:58:39;;;;;;;65.95;37.58;;;;;;;;;;5053444;28;20075;-72
2023/03/10 05:01:12;;;;;;;60.75;34.83;;;;;;;;;;5053546;28;20269;-73
2023/03/10 05:03:38;;;;;;;61.58;35.03;;;;;;;;;;5053095;28;20029;-71
2023/03/10 05:06:04;;;;;;;63.25;36.92;;;;;;;;;;5053528;28;20100;-72
2023/03/10 05:08:30;;;;;;;64.93;37.53;;;;;;;;;;5052742;28;20091;-72
2023/03/10 05:10:57;;;;;;;66.35;37.25;;;;;;;;;;5053738;28;20474;-72
2023/03/10 05:13:23;;;;;;;67.65;37.92;;;;;;;;;;5053763;28;20045;-72
2023/03/10 05:15:49;;;;;;;64.82;37.55;;;;;;;;;;5054457;28;20103;-73
2023/03/10 05:18:15;;;;;;;66.82;38.10;;;;;;;;;;5054026;28;20454;-73
2023/03/10 05:20:41;;;;;;;62.50;36.40;;;;;;;;;;5053142;28;20135;-74
2023/03/10 05:23:07;;;;;;;67.85;38.10;;;;;;;;;;5053003;28;20051;-73
2023/03/10 05:25:35;;;;;;;69.25;39.05;;;;;;;;;;5053044;28;20029;-74
2023/03/10 05:28:01;;;;;;;71.10;39.63;;;;;;;;;;5051701;28;20025;-73
2023/03/10 05:30:27;;;;;;;67.50;37.65;;;;;;;;;;5051956;28;20039;-76
2023/03/10 05:32:53;;;;;;;71.88;39.25;;;;;;;;;;5057316;28;20028;-75
2023/03/10 05:35:19;;;;;;;68.80;39.33;;;;;;;;;;5057264;28;20398;-75
2023/03/10 05:37:45;;;;;;;75.53;40.47;;;;;;;;;;5056545;28;20051;-76
2023/03/10 05:40:18;;;;;;;77.40;42.03;;;;;;;;;;5058885;28;20013;-73
2023/03/10 05:42:44;;;;;;;74.47;39.78;;;;;;;;;;5050774;28;20048;-74
2023/03/10 05:45:11;;;;;;;74.93;41.10;;;;;;;;;;5050405;28;20025;-76
2023/03/10 05:47:37;;;;;;;77.75;40.60;;;;;;;;;;5054700;28;20087;-75
2023/03/10 05:50:03;;;;;;;81.63;41.92;;;;;;;;;;5052944;28;20044;-76
2023/03/10 05:52:29;;;;;;;75.72;41.30;;;;;;;;;;5053645;28;20024;-74
2023/03/10 05:54:55;;;;;;;75.65;41.10;;;;;;;;;;5045767;28;20070;-74
2023/03/10 05:57:21;;;;;;;77.90;42.38;;;;;;;;;;5051390;28;20039;-76
2023/03/10 05:59:47;;;;;;;77.82;40.80;;;;;;;;;;5052252;28;20033;-74
2023/03/10 06:02:13;;;;;;;74.72;39.78;;;;;;;;;;5052495;28;20029;-74
2023/03/10 06:04:39;;;;;;;74.55;39.50;;;;;;;;;;5052600;28;20033;-72
2023/03/10 06:07:05;;;;;;;66.78;37.95;;;;;;;;;;5052290;28;20029;-72
2023/03/10 06:09:32;;;;;;;66.45;36.22;;;;;;;;;;5052257;28;20025;-74
2023/03/10 06:11:58;;;;;;;69.00;37.65;;;;;;;;;;5051588;28;20114;-72
2023/03/10 06:14:24;;;;;;;65.57;37.08;;;;;;;;;;5052030;28;20024;-74
2023/03/10 06:16:50;;;;;;;65.35;36.05;;;;;;;;;;5052581;28;20100;-74
2023/03/10 06:19:17;;;;;;;66.63;35.78;;;;;;;;;;5052396;28;20021;-74
2023/03/10 06:21:43;;;;;;;61.47;35.28;;;;;;;;;;5052234;28;20025;-73
2023/03/10 06:24:09;;;;;;;66.45;34.35;;;;;;;;;;5052231;28;20036;-75
2023/03/10 06:26:35;;;;;;;62.20;34.75;;;;;;;;;;5051779;28;20021;-73
2023/03/10 06:29:01;;;;;;;62.78;34.60;;;;;;;;;;5052163;28;20371;-72
2023/03/10 06:31:28;;;;;;;60.85;34.47;;;;;;;;;;5046071;28;20033;-73
2023/03/10 06:33:54;;;;;;;59.78;32.97;;;;;;;;;;5042414;28;20029;-73
2023/03/10 06:36:21;;;;;;;57.03;32.33;;;;;;;;;;5050531;28;20027;-72
2023/03/10 06:38:47;;;;;;;58.25;34.30;;;;;;;;;;5049128;28;20040;-73
2023/03/10 06:41:13;;;;;;;58.03;33.08;;;;;;;;;;5051635;28;20060;-73
2023/03/10 06:43:40;;;;;;;55.67;31.25;;;;;;;;;;5052968;28;20091;-71
2023/03/10 06:46:07;;;;;;;52.92;30.13;;;;;;;;;;5059914;28;20089;-76
2023/03/10 06:48:33;;;;;;;53.40;31.05;;;;;;;;;;5068600;28;20017;-72
2023/03/10 06:50:59;;;;;;;52.58;29.75;;;;;;;;;;5069724;28;20049;-73
2023/03/10 06:53:28;;;;;;;51.97;29.95;;;;;;;;;;5063247;28;20033;-74
2023/03/10 06:55:58;;;;;;;46.92;28.83;;;;;;;;;;5051741;28;20021;-73
2023/03/10 06:58:24;;;;;;;52.58;30.67;;;;;;;;;;5051330;28;20029;-73
2023/03/10 07:00:50;;;;;;;51.22;29.08;;;;;;;;;;5051237;28;20032;-71
2023/03/10 07:03:17;;;;;;;52.25;28.88;;;;;;;;;;5050982;28;20092;-72
2023/03/10 07:05:43;;;;;;;50.70;29.38;;;;;;;;;;5050188;28;20479;-72
2023/03/10 07:08:09;;;;;;;52.13;30.45;;;;;;;;;;5051198;28;20040;-74
2023/03/10 07:10:35;;;;;;;51.60;28.30;;;;;;;;;;5052823;28;20444;-72
2023/03/10 07:13:01;;;;;;;47.50;28.40;;;;;;;;;;5053444;28;20104;-73
2023/03/10 07:15:28;;;;;;;48.85;28.88;;;;;;;;;;5055945;28;20025;-75
2023/03/10 07:17:57;;;;;;;50.40;28.42;;;;;;;;;;5056063;28;20029;-74
2023/03/10 07:20:23;;;;;;;47.10;27.75;;;;;;;;;;5055807;28;20013;-74
2023/03/10 07:22:50;;;;;;;46.55;28.17;;;;;;;;;;5053656;28;20100;-72
2023/03/10 07:25:16;;;;;;;50.63;29.48;;;;;;;;;;5055075;28;20025;-72
2023/03/10 07:27:42;;;;;;;47.97;28.35;;;;;;;;;;5054849;28;20107;-72
2023/03/10 07:30:08;;;;;;;46.53;28.13;;;;;;;;;;5055030;28;20059;-74
2023/03/10 07:32:34;;;;;;;47.70;27.67;;;;;;;;;;5054340;28;20500;-73
2023/03/10 07:35:00;;;;;;;42.88;26.60;;;;;;;;;;5054852;28;20033;-72
2023/03/10 07:37:26;;;;;;;51.00;29.63;;;;;;;;;;5055223;28;20437;-74
2023/03/10 07:39:56;;;;;;;44.25;27.27;;;;;;;;;;5055322;28;20108;-73
2023/03/10 07:42:22;;;;;;;48.80;27.50;;;;;;;;;;5055551;28;20099;-75
2023/03/10 07:44:47;;;;;;;46.55;27.40;;;;;;;;;;5055339;28;20080;-74
2023/03/10 07:47:13;;;;;;;48.60;28.23;;;;;;;;;;5055542;28;20020;-74
2023/03/10 07:49:45;;;;;;;46.90;28.05;;;;;;;;;;5055767;28;20513;-73
2023/03/10 07:52:11;;;;;;;44.35;27.38;;;;;;;;;;5054567;28;20561;-72
2023/03/10 07:54:37;;;;;;;48.03;27.63;;;;;;;;;;5053553;28;20116;-73
2023/03/10 07:57:03;;;;;;;50.88;27.95;;;;;;;;;;5055083;28;20131;-75
2023/03/10 07:59:29;;;;;;;46.33;27.23;;;;;;;;;;5055145;28;20032;-74
2023/03/10 08:01:55;;;;;;;50.22;28.58;;;;;;;;;;5055471;28;20025;-74
2023/03/10 08:04:21;;;;;;;49.08;29.45;;;;;;;;;;5054594;28;20052;-74
2023/03/10 08:06:47;;;;;;;48.10;27.75;;;;;;;;;;5053439;28;20025;-73
2023/03/10 08:09:13;;;;;;;53.35;30.35;;;;;;;;;;5053753;28;20023;-74
2023/03/10 08:11:39;;;;;;;51.55;30.90;;;;;;;;;;5053753;28;20025;-73
2023/03/10 08:14:05;;;;;;;51.80;29.23;;;;;;;;;;5053344;28;20139;-70
2023/03/10 08:16:31;;;;;;;43.92;26.27;;;;;;;;;;5053775;28;20486;-73
2023/03/10 08:18:57;;;;;;;50.15;28.05;;;;;;;;;;5053775;28;20024;-72
2023/03/10 08:21:23;;;;;;;45.72;27.88;;;;;;;;;;5052062;28;20028;-71
2023/03/10 08:23:49;;;;;;;42.60;26.50;;;;;;;;;;5052717;28;20048;-71
2023/03/10 08:26:16;;;;;;;43.75;26.58;;;;;;;;;;5052975;28;20573;-72
2023/03/10 08:28:42;;;;;;;44.47;25.48;;;;;;;;;;5053360;28;20033;-73
2023/03/10 08:31:10;;;;;;;44.42;26.42;;;;;;;;;;5053077;28;20024;-73
2023/03/10 08:33:36;;;;;;;47.53;27.83;;;;;;;;;;5053010;28;20021;-73
2023/03/10 08:36:03;;;;;;;42.95;26.52;;;;;;;;;;5053583;28;20364;-71
2023/03/10 08:38:30;;;;;;;46.35;26.38;;;;;;;;;;5053427;28;20071;-74
2023/03/10 08:40:56;;;;;;;47.28;26.95;;;;;;;;;;5055003;28;20025;-75
2023/03/10 08:43:22;;;;;;;47.85;26.70;;;;;;;;;;5054272;28;20031;-76
2023/03/10 08:45:47;;;;;;;46.67;26.23;;;;;;;;;;5066700;28;20037;-75
2023/03/10 08:48:13;;;;;;;46.90;27.40;;;;;;;;;;5074506;28;20043;-75
2023/03/10 08:50:39;;;;;;;45.83;26.90;;;;;;;;;;5075472;28;20059;-76
2023/03/10 08:53:06;;;;;;;47.30;27.75;;;;;;;;;;5077408;28;20051;-74
2023/03/10 08:55:32;;;;;;;44.88;26.73;;;;;;;;;;5069745;28;20029;-74
2023/03/10 08:57:58;;;;;;;48.60;28.35;;;;;;;;;;5056083;28;20036;-74
2023/03/10 09:00:24;;;;;;;52.65;29.42;;;;;;;;;;5056320;28;20029;-76
2023/03/10 09:02:50;;;;;;;50.80;28.17;;;;;;;;;;5060646;28;20067;-77
2023/03/10 09:05:16;;;;;;;48.63;28.10;;;;;;;;;;5063105;28;20044;-76
2023/03/10 09:07:42;;;;;;;45.90;27.23;;;;;;;;;;5060816;28;20025;-76
2023/03/10 09:10:08;;;;;;;53.65;27.70;;;;;;;;;;5063516;28;20052;-75
2023/03/10 09:12:34;;;;;;;49.63;27.38;;;;;;;;;;5054481;28;20076;-74
2023/03/10 09:15:00;;;;;;;45.42;26.52;;;;;;;;;;5053453;28;20029;-73
2023/03/10 09:17:26;;;;;;;45.95;26.35;;;;;;;;;;5052675;28;20079;-74
2023/03/10 09:19:52;;;;;;;50.45;27.27;;;;;;;;;;5054337;28;20432;-74
2023/03/10 09:22:18;;;;;;;47.97;27.70;;;;;;;;;;5053773;28;20083;-71
2023/03/10 09:24:44;;;;;;;53.67;28.63;;;;;;;;;;5053426;28;20021;-72
2023/03/10 09:27:10;;;;;;;56.22;30.67;;;;;;;;;;5053403;28;20090;-73
2023/03/10 09:29:36;;;;;;;53.67;28.42;;;;;;;;;;5053472;28;20021;-72
2023/03/10 09:32:03;;;;;;;45.95;27.02;;;;;;;;;;5052889;28;20446;-72
2023/03/10 09:34:29;;;;;;;45.20;26.83;;;;;;;;;;5052692;28;20307;-73
2023/03/10 09:36:55;;;;;;;49.63;27.88;;;;;;;;;;5052137;28;20406;-73
2023/03/10 09:39:21;;;;;;;48.75;26.95;;;;;;;;;;5052876;28;20070;-73
2023/03/10 09:41:47;;;;;;;43.95;26.23;;;;;;;;;;5052708;28;20021;-75
2023/03/10 09:44:25;;;;;;;49.28;26.27;;;;;;;;;;5050540;28;20045;-74
2023/03/10 09:47:00;;;;;;;49.13;26.95;;;;;;;;;;5032492;28;20048;-73
2023/03/10 09:49:32;;;;;;;51.72;27.58;;;;;;;;;;5032433;28;20049;-73
2023/03/10 09:52:00;;;;;;;46.08;26.40;;;;;;;;;;5032503;28;20111;-73
2023/03/10 09:54:39;;;;;;;50.05;27.17;;;;;;;;;;5033837;28;20056;-71
2023/03/10 09:57:12;;;;;;;47.42;27.23;;;;;;;;;;5033864;28;20018;-71
2023/03/10 09:59:40;;;;;;;53.72;29.13;;;;;;;;;;5035326;28;20081;-72
2023/03/10 10:02:30;;;;;;;49.63;26.80;;;;;;;;;;5036842;28;20522;-71
2023/03/10 10:04:57;;;;;;;49.25;27.55;;;;;;;;;;5035124;28;20079;-72
2023/03/10 10:07:25;;;;;;;49.88;28.13;;;;;;;;;;5038860;28;20041;-71
2023/03/10 10:09:52;;;;;;;54.50;28.20;;;;;;;;;;5039394;28;20036;-71
2023/03/10 10:12:22;;;;;;;53.15;28.42;;;;;;;;;;5031950;28;20033;-73
2023/03/10 10:14:49;;;;;;;58.55;29.33;;;;;;;;;;5031916;28;20103;-72
2023/03/10 10:17:15;;;;;;;53.70;29.05;;;;;;;;;;5031797;28;20025;-72
2023/03/10 10:19:41;;;;;;;52.97;29.52;;;;;;;;;;5031911;28;20026;-73
2023/03/10 10:22:26;;;;;;;54.60;28.13;;;;;;;;;;5032073;28;20029;-76
2023/03/10 10:25:00;;;;;;;56.58;29.92;;;;;;;;;;5031734;28;20483;-72
2023/03/10 10:27:26;;;;;;;;;;;;;;;;;;5032301;28;20030;-73
2023/03/10 10:29:52;;;;;;;53.92;28.88;;;;;;;;;;5031925;28;19913;-73
2023/03/10 10:32:18;;;;;;;54.40;30.02;;;;;;;;;;5031442;28;20040;-73
2023/03/10 10:34:45;;;;;;;60.38;29.98;;;;;;;;;;5032007;28;20129;-71
2023/03/10 10:37:20;;;;;;;55.10;30.33;;;;;;;;;;5031795;28;20025;-73
2023/03/10 10:39:48;;;;;;;57.20;31.48;;;;;;;;;;5031509;28;20494;-72
2023/03/10 10:42:19;;;;;;;58.55;30.60;;;;;;;;;;5031452;28;20027;-72
2023/03/10 10:44:46;;;;;;;62.78;31.67;;;;;;;;;;5031437;28;20037;-72
2023/03/10 10:47:25;;;;;;;62.20;31.75;;;;;;;;;;5033570;28;20132;-72
2023/03/10 10:49:51;;;;;;;61.20;31.35;;;;;;;;;;5035834;28;20122;-73
2023/03/10 10:52:35;;;;;;;62.65;32.60;;;;;;;;;;5035625;28;20207;-72
2023/03/10 10:55:01;;;;;;;59.20;31.70;;;;;;;;;;5038827;28;20036;-72
2023/03/10 10:57:35;;;;;;;61.83;31.10;;;;;;;;;;5050212;28;20405;-72
2023/03/10 11:00:24;;;;;;;60.80;32.38;;;;;;;;;;5055500;28;20475;-71
2023/03/10 11:02:50;;;;;;;56.53;30.10;;;;;;;;;;5053768;28;20033;-71
2023/03/10 11:05:21;;;;;;;57.28;31.42;;;;;;;;;;5049694;28;20432;-71
2023/03/10 11:07:47;;;;;;;62.33;32.50;;;;;;;;;;5055116;28;20324;-71
2023/03/10 11:10:22;;;;;;;61.85;33.67;;;;;;;;;;5053721;28;20035;-73
2023/03/10 11:12:48;;;;;;;61.78;32.97;;;;;;;;;;5055337;28;20036;-74
2023/03/10 11:15:19;;;;;;;64.78;33.58;;;;;;;;;;5056505;28;20071;-75
2023/03/10 11:17:51;;;;;;;63.90;34.63;;;;;;;;;;5055969;28;20494;-75
2023/03/10 11:20:23;;;;;;;61.75;34.90;;;;;;;;;;5051603;28;20025;-74
2023/03/10 11:23:01;;;;;;;60.05;33.00;;;;;;;;;;5048227;28;20044;-74
2023/03/10 11:25:53;;;;;;;62.42;34.63;;;;;;;;;;5052940;28;20020;-73
2023/03/10 11:28:19;;;;;;;64.13;34.08;;;;;;;;;;5047921;28;20128;-73
2023/03/10 11:30:49;;;;;;;55.33;32.05;;;;;;;;;;5048817;28;20100;-74
2023/03/10 11:33:21;;;;;;;59.40;34.42;;;;;;;;;;5050118;28;20029;-74
2023/03/10 11:35:50;;;;;;;63.58;35.25;;;;;;;;;;5049255;28;20532;-74
2023/03/10 11:38:35;;;;;;;56.97;33.35;;;;;;;;;;5046830;28;20057;-73
2023/03/10 11:41:21;;;;;;;62.50;35.33;;;;;;;;;;5041344;28;20017;-74
2023/03/10 11:43:55;;;;;;;61.70;33.10;;;;;;;;;;5043132;28;20093;-74
2023/03/10 11:46:21;;;;;;;59.05;33.45;;;;;;;;;;5049473;28;20032;-73
2023/03/10 11:48:59;;;;;;;61.88;32.95;;;;;;;;;;5051373;28;20078;-73
2023/03/10 11:51:33;;;;;;;56.25;32.08;;;;;;;;;;5050966;28;20020;-76
2023/03/10 11:54:01;;;;;;;53.10;31.83;;;;;;;;;;5040957;28;20017;-73
2023/03/10 11:56:27;;;;;;;58.42;32.47;;;;;;;;;;5037272;28;20025;-74
2023/03/10 11:58:56;;;;;;;52.15;30.52;;;;;;;;;;5049417;28;20624;-73
2023/03/10 12:01:33;;;;;;;53.20;29.67;;;;;;;;;;5042996;28;20384;-74
2023/03/10 12:04:02;;;;;;;53.28;29.55;;;;;;;;;;5047783;28;20521;-74
2023/03/10 12:06:32;;;;;;;54.25;30.48;;;;;;;;;;5037236;28;20034;-74
2023/03/10 12:09:01;;;;;;;51.35;30.77;;;;;;;;;;5045789;28;20021;-73
2023/03/10 12:11:28;;;;;;;50.67;29.17;;;;;;;;;;5042755;28;20029;-74
2023/03/10 12:13:59;;;;;;;50.88;29.00;;;;;;;;;;5041958;28;20053;-73
2023/03/10 12:16:27;;;;;;;48.28;28.25;;;;;;;;;;5047668;28;20021;-74
2023/03/10 12:18:53;;;;;;;50.72;29.27;;;;;;;;;;5041132;28;20409;-74
2023/03/10 12:21:27;;;;;;;48.15;28.02;;;;;;;;;;5041174;28;20010;-74
2023/03/10 12:23:54;;;;;;;48.88;27.50;;;;;;;;;;5044035;28;20045;-75
2023/03/10 12:26:38;;;;;;;45.63;27.10;;;;;;;;;;5043549;28;20117;-74
2023/03/10 12:29:27;;;;;;;47.17;28.17;;;;;;;;;;5038098;28;20049;-73
2023/03/10 12:31:54;;;;;;;43.85;26.48;;;;;;;;;;5041775;28;20067;-76
2023/03/10 12:34:21;;;;;;;45.00;26.80;;;;;;;;;;5039574;28;20629;-76
2023/03/10 12:36:49;;;;;;;47.40;26.80;;;;;;;;;;5047750;28;20625;-74
2023/03/10 12:39:25;;;;;;;47.40;27.27;;;;;;;;;;5044103;28;20375;-75
2023/03/10 12:41:52;;;;;;;46.03;27.38;;;;;;;;;;5045288;28;20811;-75
2023/03/10 12:44:30;;;;;;;43.50;26.20;;;;;;;;;;5043614;28;20044;-75
2023/03/10 12:47:08;;;;;;;46.78;26.98;;;;;;;;;;5050481;28;20158;-75
2023/03/10 12:49:40;;;;;;;44.90;27.33;;;;;;;;;;5042487;28;20021;-79
2023/03/10 12:52:06;;;;;;;53.22;31.13;;;;;;;;;;5047461;28;20575;-73
2023/03/10 12:54:43;;;;;;;44.92;26.33;;;;;;;;;;5053306;28;20025;-73
2023/03/10 12:57:23;;;;;;;46.15;25.77;;;;;;;;;;5053480;28;20044;-73
2023/03/10 12:59:58;;;;;;;61.70;35.53;;;;;;;;;;5053464;28;20017;-72
2023/03/10 13:02:31;;;;;;;43.20;25.80;;;;;;;;;;5053212;28;20054;-73
2023/03/10 13:05:17;;;;;;;41.85;25.55;;;;;;;;;;5056803;28;20033;-71
2023/03/10 13:07:48;;;;;;;51.75;27.00;;;;;;;;;;5056782;28;20118;-74
2023/03/10 13:10:17;;;;;;;49.05;26.35;;;;;;;;;;5054463;28;20475;-75
2023/03/10 13:12:52;;;;;;;47.17;26.40;;;;;;;;;;5052174;28;20115;-72
2023/03/10 13:15:23;;;;;;;45.40;25.75;;;;;;;;;;5052087;28;20036;-72
2023/03/10 13:17:49;;;;;;;44.65;25.20;;;;;;;;;;5053251;28;20017;-73
2023/03/10 13:20:16;;;;;;;43.45;25.20;;;;;;;;;;5054631;28;20483;-74
2023/03/10 13:22:51;;;;;;;48.75;25.30;;;;;;;;;;5054184;28;20029;-73
2023/03/10 13:25:17;;;;;;;42.78;25.33;;;;;;;;;;5053924;28;20056;-75
2023/03/10 13:27:43;;;;;;;42.20;24.45;;;;;;;;;;5053653;28;20060;-75
2023/03/10 13:30:12;;;;;;;42.65;24.02;;;;;;;;;;5053909;28;20400;-75
2023/03/10 13:32:38;;;;;;;40.80;24.55;;;;;;;;;;5053173;28;20025;-74
2023/03/10 13:35:23;;;;;;;44.08;24.55;;;;;;;;;;5053754;28;20083;-73
2023/03/10 13:38:07;;;;;;;40.35;23.92;;;;;;;;;;5052470;28;20028;-73
2023/03/10 13:40:34;;;;;;;37.13;22.95;;;;;;;;;;5053455;28;20021;-75
2023/03/10 13:43:00;;;;;;;43.85;24.98;;;;;;;;;;5052897;28;20032;-75
2023/03/10 13:45:32;;;;;;;43.03;23.70;;;;;;;;;;5052845;28;20409;-74
2023/03/10 13:47:59;;;;;;;44.45;24.63;;;;;;;;;;5048735;28;20540;-72
2023/03/10 13:50:25;;;;;;;41.97;24.88;;;;;;;;;;5045563;28;20499;-74
2023/03/10 13:52:58;;;;;;;39.63;23.63;;;;;;;;;;5052065;28;20025;-76
2023/03/10 13:55:24;;;;;;;39.80;23.92;;;;;;;;;;5050146;28;20116;-73
2023/03/10 13:57:50;;;;;;;40.35;23.17;;;;;;;;;;5055544;28;20028;-74
2023/03/10 14:00:19;;;;;;;40.50;23.33;;;;;;;;;;5048743;28;20025;-71
2023/03/10 14:02:46;;;;;;;48.63;25.60;;;;;;;;;;5052269;28;20060;-73
2023/03/10 14:05:42;;;;;;;37.03;23.02;;;;;;;;;;5045125;28;20029;-71
2023/03/10 14:08:26;;;;;;;42.58;24.33;;;;;;;;;;5053904;28;20091;-73
2023/03/10 14:10:52;;;;;;;42.85;24.42;;;;;;;;;;5046827;28;20446;-75
2023/03/10 14:13:37;;;;;;;40.15;24.55;;;;;;;;;;5051700;28;20082;-73
2023/03/10 14:16:03;;;;;;;39.90;24.50;;;;;;;;;;5046867;28;20474;-74
2023/03/10 14:18:33;;;;;;;38.15;22.60;;;;;;;;;;5051787;28;20025;-72
2023/03/10 14:21:19;;;;;;;37.25;22.83;;;;;;;;;;5053613;28;20044;-72
2023/03/10 14:23:45;;;;;;;36.88;23.02;;;;;;;;;;5054494;28;20025;-73